Time;durP1;ratioP1;P1;durP2;ratioP2;P2;SDS_P1;SDS_P2;PMS_P1;PMS_P2;Temp;Humidity;BMP_temperature;BMP_pressure;BME280_temperature;BME280_humidity;BME280_pressure;Samples;Min_cycle;Max_cycle;Signal;HPM_P1;HPM_P2
2023/07/24 00:01:23;;;;;;;3.53;3.22;;;;;;;17.87;97.25;100464.03;6188086;23;20418;-78
2023/07/24 00:03:49;;;;;;;4.63;3.47;;;;;;;17.83;97.12;100471.66;6188286;23;20009;-78
2023/07/24 00:06:16;;;;;;;3.80;3.50;;;;;;;17.80;97.27;100472.63;6161334;23;20022;-78
2023/07/24 00:08:43;;;;;;;3.30;3.10;;;;;;;17.79;97.83;100471.19;6162013;23;20022;-78
2023/07/24 00:11:09;;;;;;;3.90;3.70;;;;;;;17.77;97.33;100474.34;6162006;23;20371;-78
2023/07/24 00:13:36;;;;;;;4.18;3.40;;;;;;;17.75;97.21;100468.00;6188049;23;20009;-77
2023/07/24 00:16:10;;;;;;;4.35;3.58;;;;;;;17.76;97.82;100466.78;6161867;23;20017;-77
2023/07/24 00:18:36;;;;;;;3.80;3.50;;;;;;;17.74;97.35;100467.28;6188014;23;20084;-77
2023/07/24 00:21:03;;;;;;;3.72;3.47;;;;;;;17.72;97.45;100467.03;6189075;23;20017;-78
2023/07/24 00:23:29;;;;;;;3.55;3.35;;;;;;;17.70;97.04;100460.69;6188179;23;20017;-78
2023/07/24 00:25:56;;;;;;;3.60;3.30;;;;;;;17.65;96.51;100456.78;6188724;23;20098;-77
2023/07/24 00:28:23;;;;;;;3.75;3.35;;;;;;;17.62;96.06;100458.47;6156162;23;20026;-78
2023/07/24 00:30:49;;;;;;;4.10;3.90;;;;;;;17.59;96.00;100450.69;6157110;23;20021;-78
2023/07/24 00:33:16;;;;;;;3.70;3.45;;;;;;;17.55;95.89;100447.50;6156368;23;20080;-78
2023/07/24 00:35:43;;;;;;;3.80;3.50;;;;;;;17.50;96.47;100451.69;6158705;23;20018;-78
2023/07/24 00:38:11;;;;;;;3.85;3.53;;;;;;;17.49;96.54;100446.78;6158782;23;20018;-78
2023/07/24 00:40:38;;;;;;;3.65;3.45;;;;;;;17.46;97.13;100450.47;6158452;23;20088;-78
2023/07/24 00:43:04;;;;;;;3.63;3.42;;;;;;;17.45;97.98;100446.31;6158759;23;20020;-78
2023/07/24 00:45:31;;;;;;;3.65;3.45;;;;;;;17.45;97.66;100438.97;6155554;23;20447;-78
2023/07/24 00:48:00;;;;;;;4.15;3.90;;;;;;;17.45;98.28;100435.53;6158870;23;20077;-77
2023/07/24 00:50:28;;;;;;;3.80;3.60;;;;;;;17.44;98.91;100429.44;6158170;23;20073;-78
2023/07/24 00:52:56;;;;;;;4.03;3.83;;;;;;;17.43;98.80;100425.28;6156778;23;20030;-78
2023/07/24 00:55:22;;;;;;;4.20;3.90;;;;;;;17.41;99.00;100416.97;6157958;23;20440;-77
2023/07/24 00:57:49;;;;;;;4.47;3.90;;;;;;;17.40;99.10;100415.50;6157992;23;20029;-77
2023/07/24 01:00:16;;;;;;;4.28;3.97;;;;;;;17.39;99.31;100405.22;6156928;23;20405;-77
2023/07/24 01:02:44;;;;;;;4.55;4.25;;;;;;;17.38;99.87;100406.44;6157730;23;20018;-77
2023/07/24 01:05:14;;;;;;;4.18;3.88;;;;;;;17.37;100.00;100400.34;6159822;23;20014;-77
2023/07/24 01:07:41;;;;;;;4.10;3.90;;;;;;;17.36;99.51;100404.25;6157866;23;20028;-77
2023/07/24 01:10:09;;;;;;;4.15;3.85;;;;;;;17.35;100.00;100408.16;6159933;23;20014;-77
2023/07/24 01:12:40;;;;;;;4.35;3.95;;;;;;;17.34;99.57;100409.41;6159263;23;20073;-77
2023/07/24 01:15:14;;;;;;;4.20;3.90;;;;;;;17.33;99.76;100405.97;6159416;23;20065;-80
2023/07/24 01:17:47;;;;;;;4.38;3.97;;;;;;;17.34;100.00;100410.13;6157878;23;20070;-77
2023/07/24 01:20:17;;;;;;;4.07;3.78;;;;;;;17.35;99.91;100410.88;6157755;23;20416;-79
2023/07/24 01:23:06;;;;;;;4.28;3.88;;;;;;;17.35;99.65;100408.16;6160031;23;20014;-77
2023/07/24 01:25:36;;;;;;;4.05;3.75;;;;;;;17.34;100.00;100401.31;6157387;23;20022;-77
2023/07/24 01:28:09;;;;;;;3.90;3.60;;;;;;;17.32;100.00;100403.78;6166991;23;20022;-76
2023/07/24 01:30:35;;;;;;;5.10;4.20;;;;;;;17.30;100.00;100398.16;6188052;23;20017;-77
2023/07/24 01:33:02;;;;;;;4.18;3.88;;;;;;;17.28;100.00;100401.34;6162463;23;20455;-76
2023/07/24 01:35:30;;;;;;;4.32;4.10;;;;;;;17.26;100.00;100403.78;6162215;23;20088;-76
2023/07/24 01:38:00;;;;;;;3.80;3.60;;;;;;;17.26;100.00;100401.09;6162971;23;20025;-76
2023/07/24 01:40:26;;;;;;;4.05;3.70;;;;;;;17.26;100.00;100397.69;6188621;23;20018;-76
2023/07/24 01:42:53;;;;;;;4.50;4.20;;;;;;;17.25;100.00;100396.22;6162673;23;20076;-76
2023/07/24 01:45:20;;;;;;;3.70;3.50;;;;;;;17.25;100.00;100390.81;6187999;23;20017;-76
2023/07/24 01:47:46;;;;;;;4.38;3.97;;;;;;;17.24;100.00;100392.06;6163205;23;20096;-76
2023/07/24 01:50:13;;;;;;;4.13;3.83;;;;;;;17.24;100.00;100389.38;6189335;23;20014;-76
2023/07/24 01:52:39;;;;;;;4.45;4.07;;;;;;;17.21;100.00;100376.91;6162375;23;20138;-76
2023/07/24 01:55:06;;;;;;;3.80;3.53;;;;;;;17.19;100.00;100377.41;6162781;23;20072;-76
2023/07/24 01:57:33;;;;;;;4.45;4.10;;;;;;;17.17;100.00;100365.69;6137573;23;20029;-76
2023/07/24 02:00:00;;;;;;;4.35;4.05;;;;;;;17.15;100.00;100370.81;6162245;23;20053;-76
2023/07/24 02:02:26;;;;;;;4.05;3.80;;;;;;;17.14;100.00;100375.47;6161951;23;20021;-77
2023/07/24 02:04:54;;;;;;;4.28;4.03;;;;;;;17.13;100.00;100367.91;6189393;23;20021;-76
2023/07/24 02:07:21;;;;;;;4.38;4.07;;;;;;;17.14;100.00;100366.69;6161715;23;20077;-76
2023/07/24 02:09:48;;;;;;;4.00;3.80;;;;;;;17.15;100.00;100365.44;6162285;23;20347;-76
2023/07/24 02:12:14;;;;;;;4.40;4.00;;;;;;;17.16;100.00;100364.22;6162256;23;20076;-76
2023/07/24 02:14:41;;;;;;;4.35;4.15;;;;;;;17.16;100.00;100364.22;6161832;23;20021;-76
2023/07/24 02:17:10;;;;;;;4.72;4.43;;;;;;;17.14;100.00;100364.72;6189338;23;20044;-76
2023/07/24 02:19:36;;;;;;;5.22;4.75;;;;;;;17.13;100.00;100365.94;6162154;23;20017;-76
2023/07/24 02:22:05;;;;;;;4.63;4.30;;;;;;;17.11;100.00;100363.00;6189445;23;20018;-76
2023/07/24 02:24:34;;;;;;;4.90;4.60;;;;;;;17.11;100.00;100356.91;6188587;23;20017;-76
2023/07/24 02:27:01;;;;;;;4.65;4.35;;;;;;;17.10;100.00;100352.75;6161972;23;20081;-76
2023/07/24 02:29:30;;;;;;;4.75;4.45;;;;;;;17.08;100.00;100352.50;6156611;23;20022;-78
2023/07/24 02:31:58;;;;;;;4.88;4.47;;;;;;;17.07;100.00;100345.66;6133144;23;20481;-76
2023/07/24 02:34:26;;;;;;;4.22;3.85;;;;;;;17.05;100.00;100346.16;6158699;23;20018;-78
2023/07/24 02:36:53;;;;;;;4.38;4.07;;;;;;;17.05;100.00;100346.16;6157521;23;20022;-78
2023/07/24 02:39:20;;;;;;;4.28;4.07;;;;;;;17.05;100.00;100340.03;6156902;23;20090;-77
2023/07/24 02:41:48;;;;;;;5.88;4.07;;;;;;;17.06;100.00;100336.13;6158896;23;20013;-76
2023/07/24 02:44:14;;;;;;;4.72;4.00;;;;;;;17.07;100.00;100334.91;6132712;23;20433;-78
2023/07/24 02:46:41;;;;;;;4.97;4.28;;;;;;;17.05;100.00;100332.72;6157279;23;20101;-78
2023/07/24 02:49:07;;;;;;;5.10;4.40;;;;;;;17.05;100.00;100334.66;6159392;23;20064;-78
2023/07/24 02:51:34;;;;;;;4.40;4.10;;;;;;;17.05;100.00;100334.66;6158501;23;20053;-78
2023/07/24 02:54:00;;;;;;;4.47;4.18;;;;;;;17.04;100.00;100339.31;6157821;23;20018;-78
2023/07/24 02:56:27;;;;;;;4.47;3.92;;;;;;;17.03;100.00;100337.84;6156085;23;20121;-78
2023/07/24 02:58:54;;;;;;;4.82;4.40;;;;;;;17.04;100.00;100327.81;6159241;23;20026;-78
2023/07/24 03:01:20;;;;;;;4.55;4.15;;;;;;;17.02;100.00;100333.69;6158381;23;20022;-78
2023/07/24 03:03:47;;;;;;;4.72;4.43;;;;;;;17.03;100.00;100329.06;6159289;23;20014;-78
2023/07/24 03:06:13;;;;;;;5.47;4.88;;;;;;;17.04;100.00;100327.81;6157131;23;20459;-78
2023/07/24 03:08:40;;;;;;;4.85;4.60;;;;;;;17.03;100.00;100321.00;6159433;23;20068;-77
2023/07/24 03:11:07;;;;;;;5.38;4.90;;;;;;;17.02;100.00;100325.63;6157382;23;20029;-77
2023/07/24 03:13:34;;;;;;;5.18;4.78;;;;;;;17.03;100.00;100321.00;6156949;23;20073;-76
2023/07/24 03:16:00;;;;;;;7.65;4.78;;;;;;;17.03;100.00;100321.00;6157897;23;20028;-75
2023/07/24 03:18:27;;;;;;;5.10;4.80;;;;;;;17.01;100.00;100332.22;6157331;23;20021;-75
2023/07/24 03:20:54;;;;;;;5.43;4.93;;;;;;;16.99;100.00;100324.66;6159322;23;20069;-75
2023/07/24 03:23:20;;;;;;;4.78;4.38;;;;;;;17.00;100.00;100314.63;6158718;23;20014;-75
2023/07/24 03:25:47;;;;;;;4.32;4.03;;;;;;;17.00;100.00;100310.00;6157191;23;20500;-77
2023/07/24 03:28:13;;;;;;;4.78;4.40;;;;;;;16.99;100.00;100300.47;6157240;23;20085;-75
2023/07/24 03:30:40;;;;;;;4.82;4.10;;;;;;;16.99;100.00;100297.03;6159213;23;20022;-76
2023/07/24 03:33:07;;;;;;;4.88;4.40;;;;;;;16.98;100.00;100315.13;6132978;23;20022;-75
2023/07/24 03:35:33;;;;;;;4.30;3.90;;;;;;;16.98;100.00;100314.41;6156959;23;20022;-76
2023/07/24 03:38:00;;;;;;;4.60;4.20;;;;;;;16.97;100.00;100315.63;6157724;23;20104;-76
2023/07/24 03:40:27;;;;;;;4.18;3.88;;;;;;;16.96;100.00;100306.09;6158008;23;20014;-77
2023/07/24 03:42:53;;;;;;;4.75;4.35;;;;;;;16.95;100.00;100304.63;6159460;23;20018;-77
2023/07/24 03:45:21;;;;;;;4.38;3.97;;;;;;;16.92;100.00;100316.38;6156832;23;20057;-77
2023/07/24 03:47:47;;;;;;;4.38;4.07;;;;;;;16.90;100.00;100319.53;6159413;23;20099;-77
2023/07/24 03:50:14;;;;;;;4.50;4.20;;;;;;;16.88;100.00;100303.19;6158764;23;20018;-76
2023/07/24 03:52:41;;;;;;;4.10;3.88;;;;;;;16.88;100.00;100292.41;6159073;23;20049;-76
2023/07/24 03:55:07;;;;;;;4.50;4.20;;;;;;;16.88;100.00;100311.25;6158887;23;20018;-75
2023/07/24 03:57:34;;;;;;;4.63;4.22;;;;;;;16.87;100.00;100312.47;6158702;23;20109;-76
2023/07/24 04:00:02;;;;;;;4.68;4.25;;;;;;;16.87;100.00;100311.72;6157935;23;20014;-76
2023/07/24 04:02:38;;;;;;;4.38;4.00;;;;;;;16.84;100.00;100305.38;6159054;23;20029;-76
2023/07/24 04:05:04;;;;;;;5.22;4.38;;;;;;;16.85;100.00;100298.78;6159326;23;20523;-76
2023/07/24 04:07:31;;;;;;;10.68;4.40;;;;;;;16.83;100.00;100306.59;6158515;23;20352;-76
2023/07/24 04:09:57;;;;;;;4.47;4.18;;;;;;;16.83;100.00;100305.88;6158748;23;20018;-76
2023/07/24 04:12:24;;;;;;;4.82;4.32;;;;;;;16.83;100.00;100297.81;6158253;23;20349;-76
2023/07/24 04:14:50;;;;;;;7.05;5.00;;;;;;;16.82;100.00;100290.97;6159100;23;20129;-75
2023/07/24 04:17:17;;;;;;;5.10;4.70;;;;;;;16.78;100.00;100298.56;6158637;23;20014;-76
2023/07/24 04:19:44;;;;;;;5.10;4.70;;;;;;;16.79;100.00;100308.09;6159070;23;20423;-76
2023/07/24 04:22:10;;;;;;;5.07;4.68;;;;;;;16.78;100.00;100299.31;6159247;23;20037;-75
2023/07/24 04:24:37;;;;;;;5.75;4.57;;;;;;;16.77;100.00;100311.28;6156819;23;20431;-76
2023/07/24 04:27:04;;;;;;;4.97;4.55;;;;;;;16.74;100.00;100292.72;6158966;23;20018;-77
2023/07/24 04:29:30;;;;;;;5.70;4.70;;;;;;;16.75;100.00;100304.94;6156441;23;20021;-75
2023/07/24 04:31:57;;;;;;;4.85;4.50;;;;;;;16.74;100.00;100306.91;6158477;23;20018;-76
2023/07/24 04:34:23;;;;;;;5.45;5.05;;;;;;;16.72;100.00;100303.97;6158495;23;20531;-76
2023/07/24 04:36:50;;;;;;;5.82;5.25;;;;;;;16.72;100.00;100305.91;6159264;23;20014;-75
2023/07/24 04:39:16;;;;;;;5.38;4.97;;;;;;;16.73;100.00;100315.44;6158898;23;20018;-76
2023/07/24 04:41:43;;;;;;;5.57;5.15;;;;;;;16.72;100.00;100322.03;6159151;23;20014;-76
2023/07/24 04:44:09;;;;;;;5.05;4.65;;;;;;;16.73;100.00;100318.88;6159636;23;20130;-76
2023/07/24 04:46:36;;;;;;;5.88;4.97;;;;;;;16.75;100.00;100315.69;6159380;23;20407;-77
2023/07/24 04:49:03;;;;;;;5.07;4.50;;;;;;;16.73;100.00;100323.50;6159576;23;20026;-77
2023/07/24 04:51:29;;;;;;;5.18;4.78;;;;;;;16.72;100.00;100322.03;6157359;23;20018;-78
2023/07/24 04:53:56;;;;;;;5.80;5.07;;;;;;;16.71;100.00;100315.94;6159018;23;20026;-76
2023/07/24 04:56:22;;;;;;;6.70;5.32;;;;;;;16.67;100.00;100305.44;6159139;23;20025;-78
2023/07/24 04:58:49;;;;;;;7.28;5.20;;;;;;;16.66;100.00;100303.25;6159518;23;20018;-81
2023/07/24 05:01:15;;;;;;;5.30;4.85;;;;;;;16.63;100.00;100309.56;6159438;23;20045;-79
2023/07/24 05:03:42;;;;;;;6.82;5.43;;;;;;;16.63;100.00;100304.19;6158985;23;20018;-80
2023/07/24 05:06:08;;;;;;;5.70;5.07;;;;;;;16.63;100.00;100312.97;6158071;23;20036;-80
2023/07/24 05:08:35;;;;;;;5.35;4.95;;;;;;;16.62;100.00;100316.16;6156941;23;20408;-79
2023/07/24 05:11:02;;;;;;;6.32;5.80;;;;;;;16.63;100.00;100321.03;6159490;23;20046;-80
2023/07/24 05:13:28;;;;;;;7.97;5.47;;;;;;;16.64;100.00;100313.75;6159037;23;20022;-75
2023/07/24 05:15:55;;;;;;;6.13;5.53;;;;;;;16.64;100.00;100311.06;6159762;23;20018;-79
2023/07/24 05:18:21;;;;;;;8.38;5.68;;;;;;;16.66;100.00;100314.00;6159180;23;20077;-78
2023/07/24 05:20:51;;;;;;;6.68;5.65;;;;;;;16.72;100.00;100312.03;6159364;23;20422;-78
2023/07/24 05:23:18;;;;;;;5.63;5.00;;;;;;;16.73;100.00;100313.50;6159108;23;20022;-79
2023/07/24 05:25:45;;;;;;;5.80;5.30;;;;;;;16.77;100.00;100318.63;6159265;23;20025;-78
2023/07/24 05:28:11;;;;;;;6.32;5.72;;;;;;;16.78;100.00;100314.72;6167859;23;20013;-78
2023/07/24 05:30:38;;;;;;;5.95;5.45;;;;;;;16.79;100.00;100321.53;6161787;23;20288;-77
2023/07/24 05:33:04;;;;;;;6.35;5.75;;;;;;;16.82;100.00;100323.97;6188898;23;20026;-78
2023/07/24 05:35:31;;;;;;;6.35;5.60;;;;;;;16.81;100.00;100327.88;6187959;23;20020;-78
2023/07/24 05:37:58;;;;;;;7.70;5.60;;;;;;;16.80;100.00;100321.03;6189098;23;20018;-78
2023/07/24 05:40:24;;;;;;;6.32;5.63;;;;;;;16.80;100.00;100321.03;6162244;23;20024;-77
2023/07/24 05:42:51;;;;;;;8.38;6.18;;;;;;;16.81;100.00;100316.38;6189526;23;20329;-77
2023/07/24 05:45:18;;;;;;;8.55;5.57;;;;;;;16.82;100.00;100312.47;6164072;23;20021;-77
2023/07/24 05:47:44;;;;;;;7.07;5.85;;;;;;;16.85;100.00;100314.19;6190578;23;20511;-78
2023/07/24 05:50:13;;;;;;;9.40;5.65;;;;;;;16.87;100.00;100320.53;6189918;23;20361;-77
2023/07/24 05:52:40;;;;;;;7.25;6.18;;;;;;;16.89;100.00;100317.34;6189689;23;20025;-77
2023/07/24 05:55:07;;;;;;;5.78;5.28;;;;;;;16.94;100.00;100321.97;6190591;23;20013;-77
2023/07/24 05:57:34;;;;;;;6.30;5.70;;;;;;;17.13;100.00;100324.88;6190200;23;20091;-78
2023/07/24 06:00:01;;;;;;;9.90;5.88;;;;;;;17.40;100.00;100321.31;6164125;23;20095;-79
2023/07/24 06:02:36;;;;;;;6.38;5.60;;;;;;;17.42;100.00;100323.53;6190097;23;20033;-78
2023/07/24 06:05:03;;;;;;;7.10;5.90;;;;;;;17.49;100.00;100329.13;6163496;23;20483;-78
2023/07/24 06:07:33;;;;;;;11.40;5.53;;;;;;;18.01;99.73;100328.31;6189714;23;20490;-78
2023/07/24 06:09:59;;;;;;;6.57;5.40;;;;;;;18.02;97.81;100324.41;6190308;23;20014;-79
2023/07/24 06:12:26;;;;;;;6.85;5.75;;;;;;;18.10;97.25;100327.28;6189851;23;20108;-79
2023/07/24 06:14:52;;;;;;;9.07;5.78;;;;;;;18.51;96.03;100336.00;6190506;23;20009;-79
2023/07/24 06:17:19;;;;;;;7.68;5.40;;;;;;;18.89;92.52;100328.81;6190065;23;20014;-81
2023/07/24 06:19:46;;;;;;;6.65;5.28;;;;;;;19.26;90.40;100322.00;6138614;23;20021;-80
2023/07/24 06:22:12;;;;;;;6.93;5.38;;;;;;;19.52;89.10;100329.56;6190546;23;20333;-80
2023/07/24 06:24:39;;;;;;;5.95;5.35;;;;;;;19.39;89.61;100329.47;6163458;23;20017;-79
2023/07/24 06:27:08;;;;;;;8.75;5.50;;;;;;;19.23;88.00;100333.81;6163712;23;20049;-79
2023/07/24 06:29:35;;;;;;;8.38;5.57;;;;;;;19.01;89.36;100331.41;6158192;23;20456;-79
2023/07/24 06:32:05;;;;;;;9.25;5.43;;;;;;;18.79;89.08;100333.09;6160598;23;20092;-80
2023/07/24 06:34:31;;;;;;;10.40;5.85;;;;;;;18.73;89.80;100332.44;6157345;23;20032;-79
2023/07/24 06:36:58;;;;;;;6.53;5.50;;;;;;;18.84;90.76;100326.91;6160260;23;20014;-79
2023/07/24 06:39:43;;;;;;;6.65;5.05;;;;;;;18.98;89.77;100333.88;6137361;23;20085;-79
2023/07/24 06:42:10;;;;;;;6.25;4.72;;;;;;;19.05;88.02;100326.44;6160084;23;20053;-80
2023/07/24 06:44:36;;;;;;;7.85;5.22;;;;;;;18.97;87.45;100332.41;6159888;23;20410;-79
2023/07/24 06:47:03;;;;;;;7.10;4.70;;;;;;;19.08;87.95;100336.94;6160241;23;20014;-79
2023/07/24 06:49:29;;;;;;;5.85;5.22;;;;;;;19.07;86.46;100338.19;6157623;23;20014;-80
2023/07/24 06:51:56;;;;;;;6.63;4.57;;;;;;;19.02;86.60;100335.56;6158765;23;20073;-79
2023/07/24 06:54:23;;;;;;;6.47;5.03;;;;;;;19.06;87.11;100338.69;6157645;23;20029;-78
2023/07/24 06:56:49;;;;;;;4.80;4.35;;;;;;;19.15;87.07;100338.34;6160009;23;20466;-77
2023/07/24 06:59:16;;;;;;;8.23;4.47;;;;;;;19.18;85.98;100335.38;6160039;23;20014;-80
2023/07/24 07:01:42;;;;;;;6.43;4.95;;;;;;;19.31;84.77;100335.44;6159708;23;20360;-80
2023/07/24 07:04:09;;;;;;;5.50;5.00;;;;;;;19.25;84.07;100336.75;6159457;23;20448;-80
2023/07/24 07:06:35;;;;;;;5.63;5.10;;;;;;;19.27;85.06;100336.97;6159750;23;20018;-81
2023/07/24 07:09:05;;;;;;;6.35;4.93;;;;;;;19.28;84.77;100341.84;6160263;23;20106;-82
2023/07/24 07:11:32;;;;;;;7.38;4.82;;;;;;;19.32;83.12;100336.91;6159467;23;20018;-81
2023/07/24 07:13:58;;;;;;;5.93;4.95;;;;;;;19.31;83.89;100338.13;6159934;23;20017;-81
2023/07/24 07:16:25;;;;;;;6.47;4.82;;;;;;;19.29;82.78;100331.78;6159855;23;20025;-79
2023/07/24 07:18:51;;;;;;;7.60;4.93;;;;;;;19.39;84.07;100346.38;6159345;23;20049;-78
2023/07/24 07:21:18;;;;;;;7.13;4.97;;;;;;;19.39;83.11;100348.34;6160094;23;20081;-80
2023/07/24 07:23:45;;;;;;;7.50;5.15;;;;;;;19.28;82.74;100338.41;6160182;23;20085;-80
2023/07/24 07:26:12;;;;;;;6.20;4.78;;;;;;;19.33;82.60;100346.44;6133970;23;20014;-80
2023/07/24 07:28:39;;;;;;;6.63;5.15;;;;;;;19.45;82.02;100349.75;6157568;23;20436;-79
2023/07/24 07:31:06;;;;;;;7.57;5.10;;;;;;;19.68;81.06;100346.78;6133625;23;20042;-81
2023/07/24 07:33:32;;;;;;;5.55;5.03;;;;;;;19.73;79.98;100348.69;6158978;23;20419;-81
2023/07/24 07:35:59;;;;;;;6.88;5.25;;;;;;;19.73;79.04;100345.97;6158388;23;20018;-80
2023/07/24 07:38:25;;;;;;;6.78;4.97;;;;;;;19.67;79.52;100339.91;6159735;23;20021;-82
2023/07/24 07:40:52;;;;;;;8.52;5.22;;;;;;;19.63;80.33;100335.53;6159891;23;20483;-81
2023/07/24 07:43:18;;;;;;;6.03;4.85;;;;;;;19.79;81.03;100336.56;6157644;23;20014;-81
2023/07/24 07:45:46;;;;;;;6.95;5.15;;;;;;;20.07;80.31;100327.31;6160054;23;20014;-80
2023/07/24 07:48:13;;;;;;;5.20;4.80;;;;;;;20.06;77.88;100325.84;6157460;23;20029;-81
2023/07/24 07:50:39;;;;;;;6.75;4.75;;;;;;;19.99;78.40;100321.78;6157723;23;20133;-80
2023/07/24 07:53:07;;;;;;;5.18;4.78;;;;;;;20.14;77.34;100318.59;6159838;23;20321;-79
2023/07/24 07:55:34;;;;;;;7.63;5.60;;;;;;;20.06;77.04;100323.88;6157713;23;20022;-80
2023/07/24 07:58:00;;;;;;;6.68;5.40;;;;;;;20.05;78.37;100327.09;6160090;23;20052;-81
2023/07/24 08:00:27;;;;;;;6.97;5.30;;;;;;;20.13;76.86;100311.72;6157242;23;20440;-77
2023/07/24 08:02:53;;;;;;;5.82;5.32;;;;;;;20.11;77.37;100319.63;6159745;23;20018;-78
2023/07/24 08:05:20;;;;;;;6.00;5.43;;;;;;;20.02;77.33;100312.63;6159430;23;20404;-77
2023/07/24 08:07:47;;;;;;;6.35;5.00;;;;;;;19.93;78.32;100316.47;6159688;23;20021;-78
2023/07/24 08:10:15;;;;;;;6.72;5.20;;;;;;;19.79;77.80;100314.22;6159954;23;20421;-77
2023/07/24 08:12:43;;;;;;;6.18;5.30;;;;;;;19.74;78.55;100313.06;6157503;23;20018;-77
2023/07/24 08:15:11;;;;;;;5.93;5.38;;;;;;;19.79;77.91;100314.94;6159259;23;20018;-77
2023/07/24 08:17:37;;;;;;;7.70;5.18;;;;;;;19.85;77.27;100312.91;6159357;23;20014;-77
2023/07/24 08:20:05;;;;;;;5.80;5.07;;;;;;;20.08;77.06;100318.69;6158084;23;20026;-78
2023/07/24 08:22:31;;;;;;;6.50;5.03;;;;;;;20.15;76.79;100318.09;6159195;23;20020;-77
2023/07/24 08:24:58;;;;;;;6.43;5.10;;;;;;;20.24;75.50;100315.00;6159811;23;20017;-76
2023/07/24 08:27:25;;;;;;;5.97;4.95;;;;;;;20.45;75.59;100309.00;6159256;23;20013;-76
2023/07/24 08:29:52;;;;;;;6.63;5.43;;;;;;;20.56;75.19;100314.97;6188537;23;20017;-76
2023/07/24 08:32:19;;;;;;;5.90;5.18;;;;;;;20.78;74.61;100321.94;6189126;23;20079;-76
2023/07/24 08:34:46;;;;;;;7.68;5.38;;;;;;;20.82;73.47;100321.63;6163041;23;20028;-76
2023/07/24 08:37:13;;;;;;;5.68;4.70;;;;;;;20.91;73.96;100323.91;6189226;23;20085;-76
2023/07/24 08:39:39;;;;;;;6.25;4.95;;;;;;;20.93;72.67;100326.81;6188894;23;20025;-76
2023/07/24 08:42:13;;;;;;;5.28;4.78;;;;;;;20.88;73.68;100322.25;6189381;23;20352;-76
2023/07/24 08:44:40;;;;;;;5.30;4.80;;;;;;;20.88;72.87;100328.38;6188469;23;20024;-76
2023/07/24 08:47:09;;;;;;;5.13;4.72;;;;;;;20.78;72.76;100324.66;6162927;23;20470;-75
2023/07/24 08:49:38;;;;;;;6.03;5.00;;;;;;;20.75;73.55;100320.28;6162348;23;20021;-78
2023/07/24 08:52:06;;;;;;;5.53;5.00;;;;;;;20.86;73.59;100319.31;6189313;23;20018;-76
2023/07/24 08:54:36;;;;;;;7.32;5.00;;;;;;;21.61;73.07;100326.91;6188632;23;20440;-75
2023/07/24 08:57:06;;;;;;;5.63;4.80;;;;;;;22.15;69.92;100326.19;6189113;23;20018;-74
2023/07/24 08:59:33;;;;;;;8.27;4.90;;;;;;;22.20;68.39;100322.63;6161333;23;20060;-75
2023/07/24 09:02:00;;;;;;;7.15;4.90;;;;;;;22.54;68.14;100330.66;6189133;23;20017;-76
2023/07/24 09:04:27;;;;;;;5.88;4.90;;;;;;;22.84;67.58;100321.25;6188704;23;20029;-75
2023/07/24 09:06:58;;;;;;;5.97;4.50;;;;;;;22.93;67.55;100315.34;6189288;23;20097;-77
2023/07/24 09:09:30;;;;;;;6.28;5.43;;;;;;;22.88;66.61;100314.22;6188957;23;20018;-76
2023/07/24 09:11:59;;;;;;;6.32;5.40;;;;;;;23.00;66.01;100309.22;6189314;23;20017;-75
2023/07/24 09:14:31;;;;;;;6.05;5.32;;;;;;;23.38;64.37;100306.63;6187841;23;20017;-76
2023/07/24 09:17:06;;;;;;;4.88;4.47;;;;;;;24.04;65.06;100303.13;6189322;23;20017;-76
2023/07/24 09:19:33;;;;;;;5.25;4.85;;;;;;;23.78;61.83;100298.03;6190211;23;20049;-77
2023/07/24 09:22:10;;;;;;;6.03;5.53;;;;;;;23.41;63.97;100288.53;6190304;23;20474;-79
2023/07/24 09:24:38;;;;;;;5.47;4.97;;;;;;;23.34;65.74;100294.66;6190160;23;20014;-77
2023/07/24 09:27:07;;;;;;;5.22;4.72;;;;;;;23.17;65.29;100303.31;6190110;23;20021;-76
2023/07/24 09:29:34;;;;;;;6.57;5.90;;;;;;;22.88;64.60;100297.94;6189177;23;20017;-72
2023/07/24 09:32:00;;;;;;;6.07;4.90;;;;;;;22.59;65.74;100291.06;6163546;23;20096;-75
2023/07/24 09:34:27;;;;;;;7.00;5.70;;;;;;;22.42;65.04;100291.50;6189956;23;20018;-75
2023/07/24 09:36:54;;;;;;;6.65;5.00;;;;;;;22.18;65.13;100281.78;6190316;23;20451;-74
2023/07/24 09:39:25;;;;;;;4.90;4.22;;;;;;;22.06;65.61;100282.56;6190044;23;20392;-74
2023/07/24 09:42:03;;;;;;;8.82;4.10;;;;;;;22.00;66.77;100266.41;6189833;23;20104;-74
2023/07/24 09:44:31;;;;;;;5.45;4.60;;;;;;;21.73;65.17;100265.84;6190152;23;20526;-74
2023/07/24 09:46:58;;;;;;;8.68;4.72;;;;;;;21.61;66.07;100267.34;6190298;23;20480;-74
2023/07/24 09:49:45;;;;;;;5.45;4.85;;;;;;;21.71;66.93;100262.19;6189714;23;20023;-74
2023/07/24 09:52:14;;;;;;;7.95;5.35;;;;;;;21.75;66.41;100271.44;6190117;23;20061;-74
2023/07/24 09:55:09;;;;;;;5.05;4.65;;;;;;;21.90;66.64;100285.13;6189700;23;20052;-74
2023/07/24 09:57:38;;;;;;;5.07;4.75;;;;;;;22.03;65.61;100297.91;6189283;23;20020;-74
2023/07/24 10:00:07;;;;;;;7.45;4.93;;;;;;;22.43;65.08;100295.66;6190382;23;20020;-75
2023/07/24 10:02:35;;;;;;;7.05;4.72;;;;;;;22.82;63.58;100296.63;6189786;23;20022;-73
2023/07/24 10:05:01;;;;;;;6.45;4.90;;;;;;;22.71;63.91;100286.81;6190022;23;20045;-74
2023/07/24 10:07:29;;;;;;;5.07;4.13;;;;;;;22.74;62.59;100274.16;6189974;23;20049;-76
2023/07/24 10:09:56;;;;;;;5.60;4.57;;;;;;;22.53;63.23;100279.63;6189847;23;20359;-76
2023/07/24 10:12:27;;;;;;;5.18;4.40;;;;;;;22.53;63.58;100290.50;6162985;23;20093;-74
2023/07/24 10:14:55;;;;;;;5.55;4.85;;;;;;;22.45;63.09;100287.72;6190265;23;20371;-74
2023/07/24 10:17:35;;;;;;;6.38;4.38;;;;;;;22.49;63.87;100287.38;6189631;23;20017;-74
2023/07/24 10:20:08;;;;;;;7.50;4.72;;;;;;;23.01;61.95;100288.97;6190075;23;20464;-74
2023/07/24 10:22:37;;;;;;;7.70;4.43;;;;;;;23.65;60.02;100274.47;6163234;23;20024;-75
2023/07/24 10:25:04;;;;;;;9.30;4.70;;;;;;;23.86;59.33;100260.72;6190347;23;20096;-74
2023/07/24 10:27:31;;;;;;;6.13;4.38;;;;;;;23.44;60.53;100263.75;6188720;23;20034;-74
2023/07/24 10:30:02;;;;;;;6.53;4.88;;;;;;;22.85;61.28;100266.44;6162706;23;20656;-74
2023/07/24 10:32:49;;;;;;;4.75;4.18;;;;;;;22.60;61.68;100259.97;6190209;23;20017;-75
2023/07/24 10:35:22;;;;;;;5.43;4.40;;;;;;;22.27;62.23;100265.03;6189779;23;20553;-75
2023/07/24 10:37:59;;;;;;;6.50;4.18;;;;;;;22.24;62.40;100274.22;6190121;23;20013;-76
2023/07/24 10:40:25;;;;;;;5.20;4.30;;;;;;;22.40;62.48;100261.47;6162301;23;20313;-75
2023/07/24 10:42:59;;;;;;;5.68;4.20;;;;;;;22.68;61.67;100268.88;6189987;23;20024;-74
2023/07/24 10:45:26;;;;;;;4.10;3.72;;;;;;;22.82;61.13;100264.06;6189650;23;20041;-74
2023/07/24 10:47:53;;;;;;;5.40;4.50;;;;;;;23.19;59.60;100265.50;6190107;23;20014;-74
2023/07/24 10:50:20;;;;;;;7.25;4.03;;;;;;;22.86;60.37;100259.75;6189500;23;20435;-74
2023/07/24 10:52:47;;;;;;;6.07;4.07;;;;;;;23.23;61.60;100246.84;6189793;23;20017;-74
2023/07/24 10:55:13;;;;;;;7.25;4.32;;;;;;;23.71;57.65;100253.28;6162989;23;20033;-74
2023/07/24 10:57:40;;;;;;;4.78;3.97;;;;;;;23.53;58.49;100254.38;6189608;23;20399;-74
2023/07/24 11:00:07;;;;;;;8.00;3.78;;;;;;;23.35;57.82;100250.69;6189844;23;20022;-74
2023/07/24 11:02:34;;;;;;;6.55;4.07;;;;;;;23.32;59.15;100248.31;6189541;23;20014;-74
2023/07/24 11:05:01;;;;;;;7.55;4.05;;;;;;;23.37;58.27;100250.16;6190166;23;20444;-74
2023/07/24 11:07:32;;;;;;;5.93;3.92;;;;;;;23.17;59.62;100249.75;6189639;23;20018;-74
2023/07/24 11:09:59;;;;;;;6.90;4.43;;;;;;;23.02;58.99;100257.84;6189408;23;20022;-74
2023/07/24 11:12:30;;;;;;;4.65;4.35;;;;;;;23.10;59.32;100247.00;6189641;23;20018;-74
2023/07/24 11:14:58;;;;;;;4.47;4.07;;;;;;;23.16;59.67;100250.28;6189963;23;20021;-74
2023/07/24 11:17:36;;;;;;;7.15;4.85;;;;;;;23.01;59.44;100252.94;6189483;23;20014;-74
2023/07/24 11:20:08;;;;;;;5.05;4.60;;;;;;;22.87;59.51;100257.78;6189780;23;20017;-74
2023/07/24 11:22:34;;;;;;;4.75;4.20;;;;;;;22.79;60.05;100255.03;6189607;23;20411;-74
2023/07/24 11:25:01;;;;;;;7.45;4.88;;;;;;;22.86;60.16;100259.03;6189406;23;20017;-75